Time;durP1;ratioP1;P1;durP2;ratioP2;P2;SDS_P1;SDS_P2;PMS_P1;PMS_P2;Temp;Humidity;BMP_temperature;BMP_pressure;BME280_temperature;BME280_humidity;BME280_pressure;Samples;Min_cycle;Max_cycle;Signal;HPM_P1;HPM_P2
2023/07/04 00:01:02;;;;;;;9.50;3.50;;;;;;;18.88;80.09;96576.63;4965824;28;20042;-70
2023/07/04 00:03:28;;;;;;;8.35;3.88;;;;;;;18.87;79.87;96583.38;4962593;28;20133;-71
2023/07/04 00:05:55;;;;;;;10.35;3.78;;;;;;;18.82;80.55;96572.78;4965667;28;20128;-72
2023/07/04 00:08:22;;;;;;;9.20;3.40;;;;;;;18.77;81.60;96560.16;4942980;28;20174;-70
2023/07/04 00:10:48;;;;;;;10.98;3.90;;;;;;;18.80;81.89;96556.53;4964166;28;20050;-71
2023/07/04 00:13:14;;;;;;;6.80;3.47;;;;;;;18.82;81.47;96556.91;4958270;28;20039;-71
2023/07/04 00:15:51;;;;;;;10.60;3.95;;;;;;;18.84;81.92;96565.59;4965757;28;20050;-71
2023/07/04 00:18:20;;;;;;;6.28;3.25;;;;;;;18.85;81.76;96550.53;4961884;28;20043;-72
2023/07/04 00:20:56;;;;;;;8.82;3.95;;;;;;;18.84;82.02;96560.03;4962455;28;20051;-70
2023/07/04 00:23:25;;;;;;;7.53;3.33;;;;;;;18.86;81.82;96554.06;4957604;28;20121;-73
2023/07/04 00:25:55;;;;;;;11.23;3.60;;;;;;;18.79;82.44;96560.50;4965171;28;20522;-72
2023/07/04 00:28:21;;;;;;;9.57;3.53;;;;;;;18.75;82.36;96554.25;4960732;28;20057;-70
2023/07/04 00:30:48;;;;;;;9.52;3.50;;;;;;;18.83;81.85;96552.91;4966943;28;20038;-71
2023/07/04 00:33:13;;;;;;;6.82;3.22;;;;;;;18.85;81.05;96558.84;4943597;29;20071;-70
2023/07/04 00:35:39;;;;;;;6.97;3.03;;;;;;;18.97;80.39;96556.66;4944036;28;20117;-71
2023/07/04 00:38:05;;;;;;;7.97;3.75;;;;;;;19.05;79.83;96558.06;4961176;28;20046;-72
2023/07/04 00:40:31;;;;;;;7.25;3.20;;;;;;;18.96;79.47;96557.84;4963868;28;20039;-69
2023/07/04 00:43:03;;;;;;;11.07;2.95;;;;;;;18.98;79.97;96561.78;4965619;28;20032;-72
2023/07/04 00:45:35;;;;;;;8.07;3.33;;;;;;;19.01;79.58;96560.91;4963322;28;20054;-70
2023/07/04 00:48:03;;;;;;;7.32;3.10;;;;;;;18.93;80.06;96561.47;4963615;28;20039;-70
2023/07/04 00:50:36;;;;;;;6.88;3.10;;;;;;;18.97;79.74;96560.19;4963321;28;20059;-70
2023/07/04 00:53:08;;;;;;;8.40;3.30;;;;;;;18.95;79.74;96556.28;4948533;28;20047;-70
2023/07/04 00:55:37;;;;;;;8.88;3.08;;;;;;;18.87;80.25;96558.41;4964236;28;20053;-70
2023/07/04 00:58:04;;;;;;;10.82;3.15;;;;;;;18.87;80.79;96561.97;4963259;28;20050;-70
2023/07/04 01:00:31;;;;;;;8.57;2.88;;;;;;;18.74;81.03;96563.75;4961578;28;20053;-73
2023/07/04 01:03:12;;;;;;;8.20;3.10;;;;;;;18.78;81.39;96553.41;4970912;28;20148;-69
2023/07/04 01:05:41;;;;;;;8.27;3.33;;;;;;;18.85;81.26;96564.41;4980479;28;20047;-70
2023/07/04 01:08:14;;;;;;;7.53;3.03;;;;;;;18.80;81.34;96561.28;4962673;28;20090;-70
2023/07/04 01:10:44;;;;;;;7.80;2.83;;;;;;;18.81;81.04;96558.09;4971308;28;20125;-70
2023/07/04 01:13:43;;;;;;;7.30;3.22;;;;;;;18.69;81.82;96564.25;4957799;28;20043;-72
2023/07/04 01:16:16;;;;;;;6.72;3.17;;;;;;;18.62;82.30;96569.91;4954803;28;20392;-69
2023/07/04 01:18:44;;;;;;;8.10;3.53;;;;;;;18.69;81.93;96578.91;4965757;28;20038;-71
2023/07/04 01:21:11;;;;;;;8.50;3.58;;;;;;;18.66;82.19;96568.66;4965512;28;20074;-70
2023/07/04 01:24:23;;;;;;;6.68;3.03;;;;;;;18.68;82.50;96573.78;4968438;28;20047;-70
2023/07/04 01:26:49;;;;;;;8.93;3.10;;;;;;;18.64;82.82;96573.06;4966135;28;20512;-71
2023/07/04 01:29:17;;;;;;;7.72;3.05;;;;;;;18.70;83.26;96574.13;4960129;28;20054;-70
2023/07/04 01:31:44;;;;;;;12.88;3.30;;;;;;;18.71;83.22;96592.38;4947714;28;20058;-70
2023/07/04 01:34:11;;;;;;;7.70;3.15;;;;;;;18.65;83.33;96583.72;4958999;28;20031;-70
2023/07/04 01:36:40;;;;;;;7.05;3.17;;;;;;;18.60;83.75;96588.97;4964894;28;20035;-71
2023/07/04 01:39:14;;;;;;;9.05;3.05;;;;;;;18.61;83.90;96591.31;4960294;28;20047;-69
2023/07/04 01:41:41;;;;;;;7.25;3.13;;;;;;;18.60;84.09;96594.50;4965120;28;20039;-71
2023/07/04 01:44:07;;;;;;;9.38;3.03;;;;;;;18.57;84.31;96585.06;4959727;28;20395;-70
2023/07/04 01:46:34;;;;;;;8.07;3.38;;;;;;;18.58;84.15;96591.38;4964565;28;20050;-71
2023/07/04 01:49:01;;;;;;;5.82;3.22;;;;;;;18.56;84.24;96588.25;4962271;28;20035;-71
2023/07/04 01:51:32;;;;;;;6.63;3.10;;;;;;;18.65;83.41;96594.81;4957776;28;20055;-71
2023/07/04 01:53:58;;;;;;;6.00;2.75;;;;;;;18.65;83.64;96596.81;4964560;28;20137;-72
2023/07/04 01:56:24;;;;;;;8.32;2.92;;;;;;;18.75;83.08;96601.41;4958421;28;20659;-69
2023/07/04 01:58:50;;;;;;;6.90;3.08;;;;;;;18.70;83.05;96604.66;4968620;28;20523;-73
2023/07/04 02:01:16;;;;;;;8.18;2.90;;;;;;;18.76;82.61;96605.72;4961443;28;20047;-72
2023/07/04 02:03:41;;;;;;;7.55;3.45;;;;;;;18.76;82.56;96602.19;4963422;28;20106;-72
2023/07/04 02:06:07;;;;;;;6.60;3.22;;;;;;;18.73;82.86;96604.59;4958343;28;20061;-72
2023/07/04 02:08:33;;;;;;;6.75;3.13;;;;;;;18.70;83.31;96610.19;4965659;28;20070;-69
2023/07/04 02:10:58;;;;;;;7.18;2.70;;;;;;;18.62;83.68;96611.53;4964406;28;20167;-72
2023/07/04 02:13:24;;;;;;;7.32;2.75;;;;;;;18.66;83.89;96599.16;4956397;28;20103;-72
2023/07/04 02:15:49;;;;;;;6.15;2.63;;;;;;;18.71;83.77;96603.47;4964949;28;20556;-74
2023/07/04 02:18:15;;;;;;;9.93;3.13;;;;;;;18.73;83.85;96607.38;4960028;28;20504;-73
2023/07/04 02:20:41;;;;;;;6.88;3.13;;;;;;;18.79;83.70;96610.44;4961335;28;20047;-70
2023/07/04 02:23:06;;;;;;;5.65;2.85;;;;;;;18.92;83.08;96593.97;4953615;28;20070;-71
2023/07/04 02:25:32;;;;;;;7.32;2.92;;;;;;;19.02;82.81;96597.78;4961706;28;20097;-72
2023/07/04 02:27:57;;;;;;;9.30;2.97;;;;;;;18.99;82.83;96604.94;4963362;28;20097;-72
2023/07/04 02:30:22;;;;;;;11.40;2.92;;;;;;;18.96;83.38;96599.47;4940767;28;20059;-71
2023/07/04 02:32:48;;;;;;;6.97;2.80;;;;;;;18.96;83.88;96593.91;4964114;28;20066;-72
2023/07/04 02:35:14;;;;;;;5.68;2.53;;;;;;;18.85;84.23;96600.47;4958279;28;20070;-72
2023/07/04 02:37:40;;;;;;;7.70;2.72;;;;;;;18.83;84.72;96591.75;4963458;28;20365;-72
2023/07/04 02:40:06;;;;;;;9.05;2.70;;;;;;;18.85;84.97;96589.38;4957820;28;20104;-72
2023/07/04 02:42:31;;;;;;;9.18;3.38;;;;;;;18.94;84.94;96593.56;4963074;28;20038;-71
2023/07/04 02:44:57;;;;;;;9.32;3.10;;;;;;;18.94;84.52;96583.22;4962812;28;20035;-72
2023/07/04 02:47:26;;;;;;;6.35;2.92;;;;;;;18.93;85.20;96592.00;4958014;28;20075;-72
2023/07/04 02:49:53;;;;;;;5.63;2.80;;;;;;;18.96;85.02;96596.69;4962242;28;20142;-72
2023/07/04 02:52:20;;;;;;;10.50;3.17;;;;;;;18.80;85.48;96592.59;4940480;28;20035;-73
2023/07/04 02:54:46;;;;;;;10.20;3.40;;;;;;;18.70;86.62;96599.88;4962696;28;20117;-72
2023/07/04 02:57:14;;;;;;;6.25;3.58;;;;;;;18.63;87.70;96602.78;4959137;28;20483;-72
2023/07/04 02:59:39;;;;;;;7.43;3.00;;;;;;;18.53;89.17;96599.00;4964426;28;20070;-72
2023/07/04 03:02:05;;;;;;;12.88;3.25;;;;;;;18.56;89.38;96599.34;4958095;28;20090;-71
2023/07/04 03:04:31;;;;;;;5.82;2.90;;;;;;;18.60;90.08;96597.28;4965732;28;20043;-73
2023/07/04 03:06:57;;;;;;;9.35;3.03;;;;;;;18.60;90.38;96591.75;4968972;28;20069;-72
2023/07/04 03:09:23;;;;;;;6.18;3.15;;;;;;;18.52;91.43;96600.19;4964687;28;20399;-72
2023/07/04 03:11:48;;;;;;;7.60;3.30;;;;;;;18.47;92.34;96600.66;4967214;28;20392;-70
2023/07/04 03:14:14;;;;;;;12.70;3.38;;;;;;;18.46;93.28;96593.56;4945301;28;20046;-71
2023/07/04 03:16:39;;;;;;;8.15;3.53;;;;;;;18.41;94.96;96591.25;4966470;28;20049;-73
2023/07/04 03:19:04;;;;;;;11.70;3.50;;;;;;;18.42;97.86;96601.16;4928884;28;20043;-71
2023/07/04 03:21:30;;;;;;;8.98;3.30;;;;;;;18.42;100.00;96598.41;4966485;28;20050;-71
2023/07/04 03:23:55;;;;;;;8.45;3.58;;;;;;;18.36;100.00;96593.75;4957784;28;20049;-71
2023/07/04 03:26:21;;;;;;;6.13;3.42;;;;;;;18.27;100.00;96589.50;4963465;28;20106;-71
2023/07/04 03:28:46;;;;;;;7.30;3.22;;;;;;;18.18;100.00;96589.25;4967142;28;20070;-72
2023/07/04 03:31:12;;;;;;;7.30;3.10;;;;;;;18.08;100.00;96588.22;4961637;28;20038;-71
2023/07/04 03:33:37;;;;;;;7.43;3.15;;;;;;;18.00;100.00;96578.44;4965193;28;20050;-71
2023/07/04 03:36:03;;;;;;;8.20;3.40;;;;;;;17.99;100.00;96585.19;4962806;28;20061;-70
2023/07/04 03:38:28;;;;;;;8.95;3.13;;;;;;;17.81;100.00;96590.97;4946157;28;20075;-71
2023/07/04 03:40:54;;;;;;;8.88;4.00;;;;;;;17.70;100.00;96591.09;4965393;28;20051;-69
2023/07/04 03:43:19;;;;;;;7.85;3.17;;;;;;;17.66;100.00;96590.34;4956490;28;20042;-71
2023/07/04 03:45:46;;;;;;;10.73;3.45;;;;;;;17.53;100.00;96587.34;4965129;28;20500;-71
2023/07/04 03:48:11;;;;;;;9.75;3.70;;;;;;;17.50;100.00;96588.22;4961304;28;20103;-71
2023/07/04 03:50:38;;;;;;;7.78;3.25;;;;;;;17.57;100.00;96590.88;4951487;28;20524;-71
2023/07/04 03:53:03;;;;;;;6.80;3.42;;;;;;;17.77;100.00;96604.06;4964375;28;20118;-68
2023/07/04 03:55:29;;;;;;;6.90;3.35;;;;;;;17.91;100.00;96600.34;4947211;28;20134;-71
2023/07/04 03:57:54;;;;;;;6.53;3.30;;;;;;;18.03;100.00;96599.00;4965999;28;20038;-70
2023/07/04 04:00:20;;;;;;;7.93;3.72;;;;;;;17.92;100.00;96602.69;4958580;28;20039;-69
2023/07/04 04:02:45;;;;;;;7.60;3.30;;;;;;;18.04;100.00;96606.91;4965019;28;20038;-71
2023/07/04 04:05:12;;;;;;;9.80;3.65;;;;;;;18.21;100.00;96610.59;4958929;28;20043;-70
2023/07/04 04:07:37;;;;;;;11.20;3.83;;;;;;;18.20;100.00;96616.56;4948386;28;20046;-70
2023/07/04 04:10:03;;;;;;;6.22;3.13;;;;;;;18.12;100.00;96608.34;4963937;28;20093;-69
2023/07/04 04:12:28;;;;;;;10.38;3.50;;;;;;;18.07;100.00;96610.81;4963587;28;20062;-69
2023/07/04 04:14:54;;;;;;;7.00;3.08;;;;;;;18.09;100.00;96619.47;4964981;28;20085;-70
2023/07/04 04:17:19;;;;;;;8.07;3.55;;;;;;;17.96;100.00;96608.97;4959764;28;20073;-72
2023/07/04 04:19:45;;;;;;;5.93;3.20;;;;;;;17.86;100.00;96609.13;4965156;28;20389;-71
2023/07/04 04:22:10;;;;;;;7.95;3.22;;;;;;;17.74;100.00;96607.69;4960199;28;20476;-71
2023/07/04 04:24:37;;;;;;;7.35;3.75;;;;;;;17.63;100.00;96607.81;4957693;28;20526;-71
2023/07/04 04:27:08;;;;;;;9.30;3.90;;;;;;;17.69;100.00;96611.69;4963283;28;20492;-69
2023/07/04 04:29:35;;;;;;;7.88;3.75;;;;;;;17.66;100.00;96612.50;4964046;28;20050;-70
2023/07/04 04:32:00;;;;;;;8.57;3.75;;;;;;;17.67;100.00;96616.09;4966091;28;20054;-70
2023/07/04 04:34:26;;;;;;;9.52;3.80;;;;;;;17.74;100.00;96618.75;4960858;28;20043;-71
2023/07/04 04:36:51;;;;;;;7.10;3.30;;;;;;;17.99;100.00;96618.44;4965212;28;20480;-72
2023/07/04 04:39:17;;;;;;;11.23;4.32;;;;;;;18.21;100.00;96618.13;4958570;28;20130;-70
2023/07/04 04:41:43;;;;;;;8.77;3.53;;;;;;;18.38;100.00;96624.59;4965016;28;20039;-71
2023/07/04 04:44:08;;;;;;;10.52;3.90;;;;;;;18.49;100.00;96626.00;4957554;28;20042;-72
2023/07/04 04:46:34;;;;;;;8.18;3.65;;;;;;;18.53;100.00;96631.50;4964829;28;20093;-72
2023/07/04 04:49:03;;;;;;;10.68;3.80;;;;;;;18.39;100.00;96634.50;4966090;28;20181;-72
2023/07/04 04:51:31;;;;;;;8.05;3.30;;;;;;;18.18;100.00;96636.38;4963247;28;20054;-70
2023/07/04 04:53:57;;;;;;;8.45;3.88;;;;;;;18.13;100.00;96631.28;4950011;28;20047;-71
2023/07/04 04:56:22;;;;;;;9.73;3.80;;;;;;;17.92;100.00;96626.84;4943718;28;20138;-70
2023/07/04 04:58:48;;;;;;;6.60;3.80;;;;;;;17.77;100.00;96624.25;4965237;28;20130;-71
2023/07/04 05:01:16;;;;;;;8.88;3.78;;;;;;;17.84;100.00;96630.88;4959472;28;20065;-71
2023/07/04 05:03:44;;;;;;;8.05;3.85;;;;;;;18.21;100.00;96637.53;4946997;28;20043;-72
2023/07/04 05:06:11;;;;;;;9.27;3.88;;;;;;;18.32;100.00;96636.16;4960706;28;20484;-73
2023/07/04 05:08:36;;;;;;;10.25;3.70;;;;;;;18.42;100.00;96644.72;4947566;28;20051;-74
2023/07/04 05:11:06;;;;;;;8.25;3.92;;;;;;;18.61;100.00;96649.56;4962289;28;20053;-71
2023/07/04 05:13:36;;;;;;;10.38;3.38;;;;;;;18.42;100.00;96647.50;4965181;28;20050;-72
2023/07/04 05:16:04;;;;;;;6.85;3.92;;;;;;;18.42;100.00;96659.41;4963309;28;20043;-71
2023/07/04 05:18:30;;;;;;;6.00;3.72;;;;;;;18.55;100.00;96673.47;4963704;28;20077;-72
2023/07/04 05:21:02;;;;;;;8.07;3.40;;;;;;;18.76;100.00;96674.31;4950360;28;20115;-71
2023/07/04 05:23:29;;;;;;;9.38;3.45;;;;;;;18.85;100.00;96669.84;4940004;28;20047;-73
2023/07/04 05:26:03;;;;;;;7.13;3.50;;;;;;;18.84;100.00;96675.81;4964280;28;20045;-72
2023/07/04 05:28:29;;;;;;;10.75;4.07;;;;;;;18.87;100.00;96672.16;4963508;28;20050;-73
2023/07/04 05:31:10;;;;;;;9.52;4.22;;;;;;;18.98;100.00;96677.53;4964368;28;20396;-72
2023/07/04 05:36:13;;;;;;;6.72;3.40;;;;;;;19.03;100.00;96688.97;4964702;28;20488;-70
2023/07/04 05:38:40;;;;;;;5.40;3.20;;;;;;;19.23;100.00;96688.19;4945775;28;20105;-70
2023/07/04 05:41:10;;;;;;;6.38;3.40;;;;;;;19.24;100.00;96682.22;4942390;28;20058;-70
2023/07/04 05:43:36;;;;;;;7.93;3.80;;;;;;;19.06;100.00;96682.53;4963536;28;20050;-71
2023/07/04 05:46:02;;;;;;;12.93;3.45;;;;;;;19.22;100.00;96679.09;4945663;28;20049;-70
2023/07/04 05:48:27;;;;;;;8.27;3.53;;;;;;;20.62;100.00;96673.44;4962421;28;20054;-70
2023/07/04 05:50:55;;;;;;;34.65;19.80;;;;;;;23.02;93.02;96679.03;4962885;28;20140;-71
2023/07/04 05:53:23;;;;;;;6.10;2.85;;;;;;;24.53;74.75;96678.47;4960239;28;20070;-72
2023/07/04 05:55:50;;;;;;;5.13;2.35;;;;;;;25.69;63.84;96676.00;4948049;28;20043;-73
2023/07/04 05:58:16;;;;;;;5.82;2.40;;;;;;;25.74;64.30;96680.22;4941119;28;20047;-71
2023/07/04 06:00:41;;;;;;;8.98;2.38;;;;;;;25.68;64.91;96680.09;4944047;28;20039;-71
2023/07/04 06:03:07;;;;;;;5.57;2.20;;;;;;;25.23;65.67;96686.41;4939724;28;20043;-71
2023/07/04 06:05:42;;;;;;;5.97;2.38;;;;;;;24.77;65.14;96682.25;4958769;28;20040;-73
2023/07/04 06:08:07;;;;;;;4.75;2.60;;;;;;;24.05;67.98;96678.66;4939995;28;20051;-71
2023/07/04 06:10:34;;;;;;;6.07;2.75;;;;;;;23.11;71.78;96672.78;4943975;28;20102;-72
2023/07/04 06:12:59;;;;;;;6.85;2.58;;;;;;;23.04;74.80;96673.78;4942578;29;20043;-74
2023/07/04 06:15:25;;;;;;;4.18;2.40;;;;;;;24.11;70.80;96676.03;4940164;28;20045;-73
2023/07/04 06:17:51;;;;;;;7.10;2.97;;;;;;;25.88;64.77;96685.19;4952409;28;20106;-71
2023/07/04 06:20:16;;;;;;;4.55;2.30;;;;;;;25.97;58.36;96695.66;4958874;28;20043;-71
2023/07/04 06:22:41;;;;;;;5.00;2.30;;;;;;;26.54;56.34;96681.00;4963978;28;20050;-71
2023/07/04 06:25:07;;;;;;;7.70;2.40;;;;;;;27.32;57.40;96686.88;4965613;28;20035;-69
2023/07/04 06:27:33;;;;;;;5.25;2.35;;;;;;;28.91;49.04;96710.22;4970427;28;20113;-71
2023/07/04 06:29:59;;;;;;;6.60;2.38;;;;;;;29.97;45.31;96695.19;4947514;28;20046;-73
2023/07/04 06:32:24;;;;;;;10.90;2.70;;;;;;;27.44;50.99;96693.50;4961045;28;20043;-72
2023/07/04 06:34:49;;;;;;;5.80;1.70;;;;;;;26.06;53.06;96694.88;4951938;28;20467;-71
2023/07/04 06:37:15;;;;;;;6.30;2.00;;;;;;;24.87;58.46;96704.72;4963451;28;20054;-71
2023/07/04 06:39:42;;;;;;;4.80;2.28;;;;;;;23.42;65.96;96688.88;4935840;28;20065;-72
2023/07/04 06:42:07;;;;;;;3.88;1.80;;;;;;;23.18;70.06;96680.16;4964834;28;20049;-71
2023/07/04 06:44:33;;;;;;;3.75;2.15;;;;;;;23.44;66.01;96692.00;4969248;28;20038;-72
2023/07/04 06:46:58;;;;;;;4.00;1.73;;;;;;;23.80;66.94;96694.31;4969312;28;20065;-72
2023/07/04 06:49:24;;;;;;;4.50;1.92;;;;;;;25.11;61.47;96694.50;4963642;28;20070;-72
2023/07/04 06:51:49;;;;;;;5.85;2.28;;;;;;;26.64;55.13;96705.00;4953236;28;20062;-72
2023/07/04 06:54:14;;;;;;;5.35;2.05;;;;;;;27.33;51.74;96685.59;4963739;28;20699;-73
2023/07/04 06:56:40;;;;;;;6.40;2.13;;;;;;;26.57;51.56;96690.50;4950593;28;20548;-72
2023/07/04 06:59:06;;;;;;;4.75;1.92;;;;;;;27.65;51.08;96680.38;4964084;28;20089;-72
2023/07/04 07:01:32;;;;;;;5.28;1.80;;;;;;;29.00;46.05;96698.81;4969139;28;20050;-72
2023/07/04 07:03:59;;;;;;;5.47;2.15;;;;;;;28.69;46.47;96700.16;4934497;28;20396;-70
2023/07/04 07:06:26;;;;;;;4.07;2.03;;;;;;;27.51;47.76;96689.53;4961395;28;20053;-72
2023/07/04 07:08:51;;;;;;;4.18;1.30;;;;;;;27.16;48.46;96692.91;4969141;28;20043;-72
2023/07/04 07:11:19;;;;;;;4.03;1.67;;;;;;;27.33;48.53;96698.91;4946237;28;20484;-72
2023/07/04 07:13:46;;;;;;;5.10;1.85;;;;;;;27.96;47.48;96710.13;4966525;28;20078;-73
2023/07/04 07:16:13;;;;;;;6.95;1.95;;;;;;;25.79;51.41;96698.47;4963013;28;20054;-72
2023/07/04 07:18:39;;;;;;;4.97;1.90;;;;;;;26.84;49.64;96690.41;4969534;28;20038;-70
2023/07/04 07:21:06;;;;;;;3.25;1.70;;;;;;;28.94;45.10;96697.97;4965313;28;20039;-71
2023/07/04 07:23:34;;;;;;;7.78;1.95;;;;;;;29.66;43.59;96700.22;4955200;28;20050;-71
2023/07/04 07:26:01;;;;;;;5.65;1.80;;;;;;;30.08;41.60;96713.00;4962586;28;20043;-71
2023/07/04 07:28:28;;;;;;;3.78;1.60;;;;;;;29.70;41.08;96703.59;4943461;28;20084;-70
2023/07/04 07:31:11;;;;;;;2.50;1.60;;;;;;;28.97;41.28;96703.41;4953066;28;20038;-71
2023/07/04 07:33:42;;;;;;;4.50;1.50;;;;;;;29.21;41.44;96694.00;4949361;28;20559;-73
2023/07/04 07:36:14;;;;;;;3.35;1.63;;;;;;;27.27;45.28;96687.53;4945027;28;20066;-72
2023/07/04 07:38:40;;;;;;;3.83;1.50;;;;;;;27.29;46.58;96681.44;4967889;28;20053;-71
2023/07/04 07:41:07;;;;;;;4.47;2.22;;;;;;;27.33;48.35;96696.09;4961864;28;20043;-68
2023/07/04 07:43:33;;;;;;;3.78;2.00;;;;;;;27.51;48.94;96706.41;4966628;28;20047;-72
2023/07/04 07:45:58;;;;;;;9.75;2.72;;;;;;;26.84;50.70;96709.31;4966539;28;20042;-72
2023/07/04 07:48:24;;;;;;;7.05;2.22;;;;;;;25.76;52.27;96700.94;4962778;28;20380;-70
2023/07/04 07:50:49;;;;;;;6.78;2.67;;;;;;;26.10;52.87;96698.28;4965917;28;20816;-71
2023/07/04 07:53:15;;;;;;;8.55;2.53;;;;;;;26.07;53.35;96700.03;4961987;28;20875;-74
2023/07/04 07:55:41;;;;;;;6.03;2.78;;;;;;;26.18;52.71;96693.13;4969718;28;20062;-72
2023/07/04 07:58:07;;;;;;;5.50;2.60;;;;;;;26.12;53.36;96698.59;4962713;28;20043;-72
2023/07/04 08:00:33;;;;;;;5.35;2.67;;;;;;;25.97;52.20;96700.50;4967167;28;20046;-72
2023/07/04 08:02:59;;;;;;;6.95;3.00;;;;;;;25.44;54.38;96696.72;4966020;28;20070;-72
2023/07/04 08:05:24;;;;;;;8.10;3.45;;;;;;;25.16;56.58;96693.88;4960600;28;20077;-72
2023/07/04 08:07:50;;;;;;;6.35;3.15;;;;;;;25.17;57.05;96683.44;4966721;28;20527;-70
2023/07/04 08:10:16;;;;;;;6.07;3.33;;;;;;;25.41;55.98;96680.88;4959186;28;20050;-71
2023/07/04 08:12:41;;;;;;;5.00;2.97;;;;;;;24.87;57.86;96677.47;4963613;28;20053;-70
2023/07/04 08:15:07;;;;;;;8.38;3.03;;;;;;;25.30;55.86;96675.72;4966580;28;20070;-69
2023/07/04 08:17:32;;;;;;;8.20;3.05;;;;;;;24.18;60.80;96640.19;4967413;28;20483;-71
2023/07/04 08:19:58;;;;;;;5.88;2.60;;;;;;;24.84;59.03;96644.78;4967598;28;20043;-69
2023/07/04 08:22:23;;;;;;;7.40;2.53;;;;;;;25.27;55.64;96671.03;4960018;28;20038;-70
2023/07/04 08:24:49;;;;;;;4.93;2.53;;;;;;;26.09;52.53;96697.53;4950628;28;20039;-71
2023/07/04 08:27:14;;;;;;;5.15;2.10;;;;;;;25.78;49.21;96702.50;4952421;28;20503;-70
2023/07/04 08:29:40;;;;;;;5.78;2.60;;;;;;;26.08;52.38;96700.78;4949156;28;20102;-70
2023/07/04 08:32:06;;;;;;;4.57;2.55;;;;;;;25.79;53.36;96696.44;4940755;28;20098;-72
2023/07/04 08:34:32;;;;;;;5.10;2.53;;;;;;;26.10;52.42;96695.47;4946213;28;20062;-71
2023/07/04 08:36:58;;;;;;;6.88;2.70;;;;;;;26.34;52.47;96687.16;4946525;28;20144;-70
2023/07/04 08:39:24;;;;;;;9.75;4.18;;;;;;;26.48;50.93;96694.13;4940033;28;20540;-71
2023/07/04 08:41:59;;;;;;;4.22;2.22;;;;;;;26.93;49.51;96697.25;4948564;28;20040;-71
2023/07/04 08:44:41;;;;;;;6.57;2.47;;;;;;;27.41;48.31;96703.69;4959856;28;20081;-70
2023/07/04 08:47:11;;;;;;;6.93;2.42;;;;;;;26.34;49.20;96692.75;4959470;28;20468;-71
2023/07/04 08:49:41;;;;;;;8.15;2.80;;;;;;;26.46;50.04;96683.38;4963662;28;20509;-70
2023/07/04 08:52:15;;;;;;;5.78;3.00;;;;;;;26.11;51.42;96685.81;4959341;28;20530;-71
2023/07/04 08:54:40;;;;;;;4.95;2.53;;;;;;;26.34;51.68;96689.94;4965040;28;20134;-70
2023/07/04 08:57:30;;;;;;;7.22;2.08;;;;;;;26.49;51.08;96681.66;4959280;28;20117;-70
2023/07/04 09:00:10;;;;;;;5.57;2.70;;;;;;;27.15;48.20;96691.34;4964048;28;20468;-69
2023/07/04 09:02:46;;;;;;;5.88;2.58;;;;;;;26.58;47.69;96692.84;4961612;28;20138;-69
2023/07/04 09:05:39;;;;;;;5.68;2.35;;;;;;;25.89;50.06;96697.19;4960685;28;20049;-70
2023/07/04 09:08:25;;;;;;;7.82;2.55;;;;;;;25.54;50.68;96689.13;4961212;28;20070;-70
2023/07/04 09:10:56;;;;;;;8.48;2.90;;;;;;;25.74;49.81;96689.41;4983207;28;20172;-71
2023/07/04 09:13:37;;;;;;;10.25;2.78;;;;;;;25.83;48.04;96687.88;4960895;28;20395;-71
2023/07/04 09:16:08;;;;;;;5.05;1.90;;;;;;;25.46;49.15;96680.25;4963890;28;20555;-70
2023/07/04 09:18:56;;;;;;;5.10;2.17;;;;;;;25.12;50.30;96690.47;4964650;28;20046;-70
2023/07/04 09:21:24;;;;;;;4.43;2.00;;;;;;;24.86;50.06;96675.91;4961043;28;20053;-71
2023/07/04 09:23:51;;;;;;;6.65;1.98;;;;;;;25.87;48.26;96724.94;4965136;28;20110;-70
2023/07/04 09:26:20;;;;;;;5.93;2.28;;;;;;;26.08;47.95;96689.56;4953155;28;20035;-71
2023/07/04 09:28:49;;;;;;;5.93;2.05;;;;;;;26.75;46.54;96679.22;4954469;28;20064;-71
2023/07/04 09:31:17;;;;;;;5.63;2.10;;;;;;;26.47;47.64;96670.91;4965336;28;20038;-71
2023/07/04 09:33:44;;;;;;;4.10;1.80;;;;;;;27.19;45.46;96669.44;4949415;28;20158;-71
2023/07/04 09:36:09;;;;;;;3.78;1.90;;;;;;;27.49;45.47;96672.38;4959562;28;20437;-70
2023/07/04 09:38:56;;;;;;;4.25;2.20;;;;;;;27.52;47.39;96669.38;4964466;28;20047;-71
2023/07/04 09:41:27;;;;;;;4.70;2.22;;;;;;;26.52;48.21;96661.03;4960353;28;20390;-70
2023/07/04 09:43:55;;;;;;;6.78;2.22;;;;;;;26.07;47.43;96659.94;4964847;28;20126;-71
2023/07/04 09:46:29;;;;;;;7.00;2.10;;;;;;;26.49;48.52;96662.00;4961778;28;20050;-71
2023/07/04 09:49:14;;;;;;;7.20;1.90;;;;;;;27.00;47.05;96658.31;4963041;28;20035;-72
2023/07/04 09:51:40;;;;;;;3.90;2.05;;;;;;;26.76;47.04;96657.50;4947266;28;20039;-71
2023/07/04 09:54:11;;;;;;;4.20;1.67;;;;;;;26.44;46.28;96660.59;4959895;28;20113;-69
2023/07/04 09:56:37;;;;;;;8.07;2.42;;;;;;;26.30;47.14;96656.44;4965339;28;20045;-72
2023/07/04 09:59:11;;;;;;;5.55;2.17;;;;;;;26.16;48.51;96654.28;4945648;28;20470;-70
2023/07/04 10:02:12;;;;;;;3.83;1.98;;;;;;;26.73;47.03;96653.63;4957356;28;20042;-70
2023/07/04 10:04:40;;;;;;;2.80;1.67;;;;;;;26.73;44.87;96653.63;4962198;28;20054;-72
2023/07/04 10:07:12;;;;;;;5.27;1.83;;;;;;;26.86;47.05;96647.78;4960283;28;20049;-70
2023/07/04 10:10:01;;;;;;;2.53;1.60;;;;;;;27.50;43.77;96654.25;4964304;28;20451;-71
2023/07/04 10:12:33;;;;;;;3.45;1.52;;;;;;;27.23;43.87;96656.75;4958954;28;20116;-69
2023/07/04 10:15:00;;;;;;;2.78;1.27;;;;;;;26.22;44.76;96651.66;4962850;28;20050;-69
2023/07/04 10:17:28;;;;;;;4.57;1.27;;;;;;;26.08;45.76;96655.88;4974712;28;20051;-73
2023/07/04 10:20:00;;;;;;;3.28;1.60;;;;;;;25.73;47.48;96642.19;4965169;28;20047;-70
2023/07/04 10:22:35;;;;;;;3.63;1.60;;;;;;;26.09;46.44;96649.00;4961647;28;20045;-70
2023/07/04 10:25:02;;;;;;;3.55;1.45;;;;;;;26.41;45.37;96644.69;4959784;28;20377;-69
2023/07/04 10:27:37;;;;;;;2.42;1.30;;;;;;;26.29;46.13;96645.69;4952812;28;20042;-71
2023/07/04 10:30:11;;;;;;;4.10;1.55;;;;;;;26.52;45.94;96644.19;4961827;28;20050;-69
2023/07/04 10:32:49;;;;;;;3.20;1.40;;;;;;;26.82;44.08;96641.56;4971168;28;20090;-71
2023/07/04 10:35:19;;;;;;;3.10;1.40;;;;;;;26.95;43.95;96641.34;4977318;28;20041;-71
2023/07/04 10:37:51;;;;;;;6.15;1.50;;;;;;;26.65;45.90;96641.19;4977785;28;20515;-70
2023/07/04 10:40:18;;;;;;;4.22;1.15;;;;;;;26.95;45.56;96644.91;4959637;28;20042;-71
2023/07/04 10:42:53;;;;;;;4.32;1.60;;;;;;;27.26;43.47;96641.78;4963884;28;20097;-70
2023/07/04 10:45:22;;;;;;;2.92;1.60;;;;;;;27.27;43.76;96643.31;4960208;28;20066;-71
2023/07/04 10:47:51;;;;;;;3.15;1.58;;;;;;;27.11;42.10;96645.75;4964246;28;20399;-70
2023/07/04 10:50:22;;;;;;;2.67;1.50;;;;;;;26.03;45.29;96628.47;4941274;28;20431;-70
2023/07/04 10:52:49;;;;;;;5.28;1.98;;;;;;;25.66;45.89;96632.09;4947305;28;20050;-71
2023/07/04 10:55:23;;;;;;;2.75;1.67;;;;;;;26.24;45.84;96627.47;4942841;28;20043;-71
2023/07/04 10:57:59;;;;;;;3.78;1.42;;;;;;;27.22;44.17;96623.50;4950403;28;20396;-71
2023/07/04 11:00:30;;;;;;;2.90;1.15;;;;;;;28.13;42.82;96626.00;4959561;28;20832;-72
2023/07/04 11:03:01;;;;;;;3.38;1.27;;;;;;;28.09;43.01;96623.38;4945024;28;20566;-69
2023/07/04 11:05:38;;;;;;;2.75;1.30;;;;;;;28.71;41.00;96620.75;4961806;28;20540;-71
2023/07/04 11:08:07;;;;;;;1.90;0.95;;;;;;;28.63;40.96;96631.69;4945875;28;20582;-69
2023/07/04 11:10:40;;;;;;;2.47;1.20;;;;;;;28.59;40.14;96626.25;4947136;28;20073;-70
2023/07/04 11:13:07;;;;;;;4.93;1.48;;;;;;;28.77;40.62;96624.44;4937922;28;20150;-70
2023/07/04 11:15:38;;;;;;;2.45;1.45;;;;;;;28.68;40.59;96621.75;4942753;29;20043;-70
2023/07/04 11:18:05;;;;;;;3.63;1.70;;;;;;;28.64;40.77;96616.31;4938973;28;20130;-69
2023/07/04 11:20:40;;;;;;;3.80;1.23;;;;;;;28.88;39.69;96613.31;4944175;28;20043;-71
2023/07/04 11:23:14;;;;;;;4.25;1.20;;;;;;;28.94;39.98;96616.22;4937604;28;20055;-68
2023/07/04 11:25:42;;;;;;;2.20;1.20;;;;;;;28.03;40.84;96605.59;4953568;28;20039;-70
2023/07/04 11:28:43;;;;;;;2.38;1.25;;;;;;;28.00;40.93;96604.56;4956079;28;20109;-70
2023/07/04 11:31:30;;;;;;;1.80;1.00;;;;;;;28.22;39.09;96597.72;4942430;28;20396;-70
2023/07/04 11:33:56;;;;;;;3.17;1.02;;;;;;;27.85;40.69;96603.75;4928738;29;20094;-71
2023/07/04 11:36:49;;;;;;;3.03;0.90;;;;;;;27.71;40.32;96605.28;4917819;29;20059;-70
2023/07/04 11:39:26;;;;;;;2.50;1.02;;;;;;;27.75;40.92;96605.09;4935957;29;20050;-69
2023/07/04 11:41:52;;;;;;;2.10;1.00;;;;;;;27.78;39.85;96601.31;4958677;28;20421;-71